createdAt,value
2022-09-12T00:03:56.779Z,11.00
2022-09-12T00:06:26.593Z,10.90
2022-09-12T00:08:55.559Z,10.80
2022-09-12T00:11:27.664Z,10.70
2022-09-12T00:13:57.095Z,10.60
2022-09-12T00:16:27.211Z,10.60
2022-09-12T00:18:57.237Z,10.60
2022-09-12T00:21:25.993Z,10.50
2022-09-12T00:28:54.334Z,10.50
2022-09-12T00:31:25.058Z,10.50
2022-09-12T00:33:53.919Z,10.40
2022-09-12T00:36:24.614Z,10.40
2022-09-12T00:38:54.641Z,10.40
2022-09-12T00:41:24.783Z,10.40
2022-09-12T00:43:54.074Z,10.50
2022-09-12T00:51:20.450Z,10.70
2022-09-12T00:53:51.365Z,10.60
2022-09-12T00:56:20.729Z,10.60
2022-09-12T00:58:51.230Z,10.60
2022-09-12T01:01:20.332Z,10.60
2022-09-12T01:03:49.048Z,10.60
2022-09-12T01:06:18.974Z,10.60
2022-09-12T01:08:48.600Z,10.70
2022-09-12T01:11:19.537Z,10.60
2022-09-12T01:13:49.195Z,10.70
2022-09-12T01:16:18.287Z,10.70
2022-09-12T01:18:53.861Z,10.70
2022-09-12T01:21:28.456Z,10.70
2022-09-12T01:24:15.595Z,10.70
2022-09-12T01:27:03.347Z,10.60
2022-09-12T01:29:42.320Z,10.70
2022-09-12T01:32:14.530Z,10.70
2022-09-12T01:34:47.947Z,10.70
2022-09-12T01:37:18.211Z,10.60
2022-09-12T01:39:52.513Z,10.60
2022-09-12T01:42:23.569Z,10.70
2022-09-12T01:44:56.406Z,10.60
2022-09-12T01:47:31.050Z,10.60
2022-09-12T01:50:01.768Z,10.60
2022-09-12T01:52:34.728Z,10.50
2022-09-12T01:55:09.841Z,10.50
2022-09-12T01:57:41.223Z,10.50
2022-09-12T03:07:34.115Z,10.40
2022-09-12T03:10:08.935Z,10.40
2022-09-12T03:12:44.141Z,10.40
2022-09-12T03:15:21.795Z,10.30
2022-09-12T03:17:58.069Z,10.30
2022-09-12T03:20:32.682Z,10.30
2022-09-12T03:23:05.196Z,10.30
2022-09-12T03:25:35.611Z,10.30
2022-09-12T03:28:08.225Z,10.20
2022-09-12T03:30:39.109Z,10.10
2022-09-12T03:33:07.821Z,10.20
2022-09-12T03:35:36.426Z,10.20
2022-09-12T03:38:08.046Z,10.20
2022-09-12T03:40:37.030Z,10.20
2022-09-12T03:43:06.165Z,10.20
2022-09-12T03:45:34.985Z,10.10
2022-09-12T03:48:03.754Z,10.10
2022-09-12T03:50:32.545Z,10.10
2022-09-12T03:53:01.505Z,10.10
2022-09-12T03:55:31.393Z,10.10
2022-09-12T03:58:00.060Z,10.10
2022-09-12T04:00:28.738Z,10.10
2022-09-12T04:05:26.751Z,10.10
2022-09-12T04:07:55.336Z,10.00
2022-09-12T04:10:23.970Z,10.10
2022-09-12T04:12:54.395Z,10.10
2022-09-12T04:15:23.091Z,10.00
2022-09-12T04:32:45.354Z,10.20
2022-09-12T04:35:14.174Z,10.10
2022-09-12T04:37:42.732Z,10.10
2022-09-12T04:40:11.577Z,10.10
2022-09-12T04:45:09.391Z,10.60
2022-09-12T04:47:38.235Z,10.20
2022-09-12T04:50:08.773Z,10.20
2022-09-12T04:52:38.661Z,10.30
2022-09-12T04:57:36.446Z,9.80
2022-09-12T05:00:09.821Z,10.00
2022-09-12T05:02:38.522Z,10.00
2022-09-12T05:10:06.144Z,10.10
2022-09-12T05:15:04.770Z,10.10
2022-09-12T05:17:33.430Z,10.20
2022-09-12T05:20:02.168Z,10.10
2022-09-12T05:27:29.627Z,10.50
2022-09-12T05:29:59.140Z,9.40
2022-09-12T05:32:27.842Z,10.10
2022-09-12T05:34:56.337Z,10.10
2022-09-12T05:37:25.009Z,10.10
2022-09-12T06:19:41.022Z,10.20
2022-09-12T06:24:38.778Z,10.60
2022-09-12T06:37:04.878Z,11.00
2022-09-12T06:39:33.607Z,11.00
2022-09-12T06:42:02.207Z,11.00
2022-09-12T06:44:35.650Z,11.00
2022-09-12T06:47:04.382Z,11.00
2022-09-12T06:49:33.863Z,11.10
2022-09-12T06:52:03.983Z,11.10
2022-09-12T06:54:35.188Z,11.10
2022-09-12T06:57:03.948Z,11.00
2022-09-12T06:59:32.857Z,11.00
2022-09-12T07:02:01.717Z,11.00
2022-09-12T07:04:30.544Z,11.10
2022-09-12T07:06:59.169Z,11.10
2022-09-12T07:09:30.779Z,11.10
2022-09-12T07:12:00.964Z,11.20
2022-09-12T07:14:29.573Z,11.30
2022-09-12T07:16:58.402Z,11.30
2022-09-12T07:19:27.143Z,11.30
2022-09-12T07:21:58.654Z,11.40
2022-09-12T07:24:29.053Z,11.50
2022-09-12T07:26:57.756Z,11.40
2022-09-12T07:29:42.099Z,11.30
2022-09-12T07:32:12.109Z,11.40
2022-09-12T07:37:09.511Z,11.60
2022-09-12T07:39:39.614Z,11.70
2022-09-12T07:42:08.416Z,11.70
2022-09-12T07:44:37.141Z,11.90
2022-09-12T07:47:05.790Z,11.90
2022-09-12T07:49:34.554Z,11.90
2022-09-12T07:52:03.237Z,12.10
2022-09-12T07:54:33.390Z,12.20
2022-09-12T07:57:03.642Z,12.20
2022-09-12T07:59:51.348Z,12.20
2022-09-12T08:04:49.428Z,12.30
2022-09-12T08:07:19.528Z,12.30
2022-09-12T08:09:48.541Z,12.20
2022-09-12T08:12:20.297Z,12.30
2022-09-12T08:14:49.391Z,12.30
2022-09-12T08:17:18.069Z,12.30
2022-09-12T08:19:46.959Z,12.60
2022-09-12T08:22:15.660Z,12.40
2022-09-12T08:24:44.554Z,12.40
2022-09-12T08:27:13.240Z,12.70
2022-09-12T08:32:12.018Z,12.80
2022-09-12T08:34:40.753Z,12.80
2022-09-12T08:37:09.323Z,12.80
2022-09-12T08:39:38.073Z,12.80
2022-09-12T08:42:07.520Z,12.80
2022-09-12T08:44:41.831Z,12.90
2022-09-12T08:47:17.171Z,13.20
2022-09-12T08:49:53.596Z,13.10
2022-09-12T08:52:25.197Z,13.10
2022-09-12T08:54:55.936Z,13.20
2022-09-12T08:57:25.289Z,13.40
2022-09-12T08:59:54.296Z,13.60
2022-09-12T09:02:34.550Z,13.70
2022-09-12T09:05:08.226Z,13.80
2022-09-12T09:07:47.282Z,13.60
2022-09-12T09:10:23.737Z,13.60
2022-09-12T09:12:55.587Z,13.40
2022-09-12T09:15:33.409Z,13.40
2022-09-12T09:18:06.577Z,13.70
2022-09-12T09:25:42.184Z,13.50
2022-09-12T09:28:15.589Z,13.80
2022-09-12T09:58:03.306Z,13.80
2022-09-12T10:00:32.907Z,13.80
2022-09-12T10:05:31.467Z,13.60
2022-09-12T10:08:00.498Z,13.50
2022-09-12T10:10:29.146Z,13.80
2022-09-12T10:15:29.324Z,13.70
2022-09-12T10:17:58.927Z,13.80
2022-09-12T10:20:32.116Z,13.70
2022-09-12T10:23:01.732Z,13.60
2022-09-12T10:25:30.485Z,13.60
2022-09-12T10:28:00.611Z,13.60
2022-09-12T10:30:30.798Z,13.60
2022-09-12T10:33:06.941Z,13.60
2022-09-12T10:35:44.474Z,13.90
2022-09-12T10:38:16.985Z,14.10
2022-09-12T10:40:45.991Z,14.30
2022-09-12T10:43:18.593Z,14.30
2022-09-12T10:45:48.586Z,14.60
2022-09-12T10:48:25.704Z,14.90
2022-09-12T10:50:54.515Z,14.90
2022-09-12T10:53:24.188Z,14.90
2022-09-12T10:56:02.979Z,14.80
2022-09-12T10:58:42.252Z,15.00
2022-09-12T11:11:11.504Z,14.40
2022-09-12T12:10:52.646Z,13.90
2022-09-12T12:13:23.301Z,13.90
2022-09-12T12:15:54.191Z,13.90
2022-09-12T12:18:25.259Z,14.00
2022-09-12T12:20:54.962Z,13.90
2022-09-12T12:25:55.202Z,14.10
2022-09-12T12:31:03.319Z,14.20
